sensor_id;sensor_type;location;lat;lon;timestamp;temperature;humidity
32400;DHT22;45045;45.440;9.178;2023-04-15T00:00:23;16.70;50.20
32400;DHT22;45045;45.440;9.178;2023-04-15T00:02:50;16.70;50.20
32400;DHT22;45045;45.440;9.178;2023-04-15T00:05:15;16.60;50.40
32400;DHT22;45045;45.440;9.178;2023-04-15T00:07:41;16.40;50.30
32400;DHT22;45045;45.440;9.178;2023-04-15T00:10:06;16.30;48.70
32400;DHT22;45045;45.440;9.178;2023-04-15T00:12:32;16.30;48.40
32400;DHT22;45045;45.440;9.178;2023-04-15T00:14:58;16.30;50.00
32400;DHT22;45045;45.440;9.178;2023-04-15T00:17:23;16.30;49.60
32400;DHT22;45045;45.440;9.178;2023-04-15T00:19:49;16.30;49.50
32400;DHT22;45045;45.440;9.178;2023-04-15T00:22:14;16.30;49.30
32400;DHT22;45045;45.440;9.178;2023-04-15T00:24:40;16.30;49.50
32400;DHT22;45045;45.440;9.178;2023-04-15T00:27:07;16.40;49.80
32400;DHT22;45045;45.440;9.178;2023-04-15T00:29:32;16.30;49.60
32400;DHT22;45045;45.440;9.178;2023-04-15T00:31:58;16.20;49.60
32400;DHT22;45045;45.440;9.178;2023-04-15T00:34:23;16.10;50.00
32400;DHT22;45045;45.440;9.178;2023-04-15T00:36:49;16.10;50.10
32400;DHT22;45045;45.440;9.178;2023-04-15T00:39:15;16.10;50.60
32400;DHT22;45045;45.440;9.178;2023-04-15T00:41:41;16.10;50.70
32400;DHT22;45045;45.440;9.178;2023-04-15T00:44:07;16.10;50.80
32400;DHT22;45045;45.440;9.178;2023-04-15T00:46:37;16.10;51.40
32400;DHT22;45045;45.440;9.178;2023-04-15T00:49:03;16.00;51.70
32400;DHT22;45045;45.440;9.178;2023-04-15T00:51:29;15.90;51.90
32400;DHT22;45045;45.440;9.178;2023-04-15T00:54:04;15.90;52.70
32400;DHT22;45045;45.440;9.178;2023-04-15T00:56:30;15.70;51.20
32400;DHT22;45045;45.440;9.178;2023-04-15T00:58:57;15.70;51.20
32400;DHT22;45045;45.440;9.178;2023-04-15T01:01:23;15.60;51.20
32400;DHT22;45045;45.440;9.178;2023-04-15T01:03:49;15.70;51.80
32400;DHT22;45045;45.440;9.178;2023-04-15T01:06:15;15.80;52.00
32400;DHT22;45045;45.440;9.178;2023-04-15T01:08:41;15.80;52.10
32400;DHT22;45045;45.440;9.178;2023-04-15T01:11:07;15.70;52.30
32400;DHT22;45045;45.440;9.178;2023-04-15T01:13:33;15.50;52.50
32400;DHT22;45045;45.440;9.178;2023-04-15T01:15:58;15.50;53.10
32400;DHT22;45045;45.440;9.178;2023-04-15T01:18:24;15.50;54.30
32400;DHT22;45045;45.440;9.178;2023-04-15T01:20:50;15.60;54.80
32400;DHT22;45045;45.440;9.178;2023-04-15T01:23:16;15.50;56.20
32400;DHT22;45045;45.440;9.178;2023-04-15T01:25:42;15.60;57.30
32400;DHT22;45045;45.440;9.178;2023-04-15T01:28:08;15.50;58.10
32400;DHT22;45045;45.440;9.178;2023-04-15T01:30:34;15.40;59.30
32400;DHT22;45045;45.440;9.178;2023-04-15T01:32:59;15.40;61.70
32400;DHT22;45045;45.440;9.178;2023-04-15T01:35:25;15.30;63.70
32400;DHT22;45045;45.440;9.178;2023-04-15T01:37:51;15.20;65.60
32400;DHT22;45045;45.440;9.178;2023-04-15T01:40:18;15.30;67.40
32400;DHT22;45045;45.440;9.178;2023-04-15T01:42:44;15.20;70.00
32400;DHT22;45045;45.440;9.178;2023-04-15T01:45:10;15.20;72.60
32400;DHT22;45045;45.440;9.178;2023-04-15T01:47:35;15.20;73.80
32400;DHT22;45045;45.440;9.178;2023-04-15T01:50:01;15.20;74.70
32400;DHT22;45045;45.440;9.178;2023-04-15T01:52:26;15.30;75.30
32400;DHT22;45045;45.440;9.178;2023-04-15T01:54:52;15.30;76.00
32400;DHT22;45045;45.440;9.178;2023-04-15T01:57:17;15.30;76.20
32400;DHT22;45045;45.440;9.178;2023-04-15T01:59:43;15.30;76.80
32400;DHT22;45045;45.440;9.178;2023-04-15T02:02:08;15.20;77.50
32400;DHT22;45045;45.440;9.178;2023-04-15T02:04:34;15.20;78.20
32400;DHT22;45045;45.440;9.178;2023-04-15T02:07:00;15.30;79.50
32400;DHT22;45045;45.440;9.178;2023-04-15T02:09:26;15.20;80.80
32400;DHT22;45045;45.440;9.178;2023-04-15T02:11:51;15.00;81.70
32400;DHT22;45045;45.440;9.178;2023-04-15T02:14:18;15.00;83.00
32400;DHT22;45045;45.440;9.178;2023-04-15T02:16:44;14.90;84.30
32400;DHT22;45045;45.440;9.178;2023-04-15T02:19:09;14.80;85.60
32400;DHT22;45045;45.440;9.178;2023-04-15T02:21:35;14.80;86.80
32400;DHT22;45045;45.440;9.178;2023-04-15T02:24:00;14.80;86.70
32400;DHT22;45045;45.440;9.178;2023-04-15T02:26:26;14.80;87.40
32400;DHT22;45045;45.440;9.178;2023-04-15T02:28:52;14.70;88.20
32400;DHT22;45045;45.440;9.178;2023-04-15T02:31:17;14.80;89.00
32400;DHT22;45045;45.440;9.178;2023-04-15T02:33:43;14.80;89.60
32400;DHT22;45045;45.440;9.178;2023-04-15T02:36:09;14.80;90.10
32400;DHT22;45045;45.440;9.178;2023-04-15T02:38:36;14.70;90.30
32400;DHT22;45045;45.440;9.178;2023-04-15T02:41:02;14.80;90.40
32400;DHT22;45045;45.440;9.178;2023-04-15T02:43:29;14.70;90.70
32400;DHT22;45045;45.440;9.178;2023-04-15T02:45:54;14.70;91.00
32400;DHT22;45045;45.440;9.178;2023-04-15T02:48:20;14.70;91.20
32400;DHT22;45045;45.440;9.178;2023-04-15T02:50:46;14.60;91.20
32400;DHT22;45045;45.440;9.178;2023-04-15T02:53:12;14.60;91.50
32400;DHT22;45045;45.440;9.178;2023-04-15T02:55:39;14.60;91.70
32400;DHT22;45045;45.440;9.178;2023-04-15T02:58:04;14.60;91.80
32400;DHT22;45045;45.440;9.178;2023-04-15T03:00:30;14.60;92.00
32400;DHT22;45045;45.440;9.178;2023-04-15T03:03:00;14.60;92.30
32400;DHT22;45045;45.440;9.178;2023-04-15T03:05:26;14.60;92.50
32400;DHT22;45045;45.440;9.178;2023-04-15T03:07:52;14.50;92.50
32400;DHT22;45045;45.440;9.178;2023-04-15T03:10:17;14.40;92.70
32400;DHT22;45045;45.440;9.178;2023-04-15T03:12:43;14.40;93.20
32400;DHT22;45045;45.440;9.178;2023-04-15T03:15:09;14.40;93.20
32400;DHT22;45045;45.440;9.178;2023-04-15T03:17:34;14.40;93.10
32400;DHT22;45045;45.440;9.178;2023-04-15T03:20:00;14.50;93.20
32400;DHT22;45045;45.440;9.178;2023-04-15T03:22:27;14.50;93.20
32400;DHT22;45045;45.440;9.178;2023-04-15T03:24:52;14.50;93.20
32400;DHT22;45045;45.440;9.178;2023-04-15T03:27:17;14.40;93.30
32400;DHT22;45045;45.440;9.178;2023-04-15T03:29:43;14.30;93.90
32400;DHT22;45045;45.440;9.178;2023-04-15T03:32:08;14.30;94.20
32400;DHT22;45045;45.440;9.178;2023-04-15T03:34:34;14.30;94.10
32400;DHT22;45045;45.440;9.178;2023-04-15T03:37:00;14.30;94.30
32400;DHT22;45045;45.440;9.178;2023-04-15T03:39:25;14.20;94.80
32400;DHT22;45045;45.440;9.178;2023-04-15T03:41:51;14.20;94.60
32400;DHT22;45045;45.440;9.178;2023-04-15T03:44:17;14.30;94.50
32400;DHT22;45045;45.440;9.178;2023-04-15T03:46:44;14.20;94.40
32400;DHT22;45045;45.440;9.178;2023-04-15T03:49:09;14.20;94.70
32400;DHT22;45045;45.440;9.178;2023-04-15T03:51:35;14.20;94.70
32400;DHT22;45045;45.440;9.178;2023-04-15T03:54:01;14.20;94.80
32400;DHT22;45045;45.440;9.178;2023-04-15T03:56:26;14.20;94.90
32400;DHT22;45045;45.440;9.178;2023-04-15T03:58:52;14.20;94.90
32400;DHT22;45045;45.440;9.178;2023-04-15T04:01:17;14.10;94.90
32400;DHT22;45045;45.440;9.178;2023-04-15T04:03:43;14.10;95.50
32400;DHT22;45045;45.440;9.178;2023-04-15T04:06:08;14.10;95.50
32400;DHT22;45045;45.440;9.178;2023-04-15T04:08:36;14.00;95.10
32400;DHT22;45045;45.440;9.178;2023-04-15T04:11:02;14.00;95.40
32400;DHT22;45045;45.440;9.178;2023-04-15T04:13:27;13.90;95.50
32400;DHT22;45045;45.440;9.178;2023-04-15T04:15:53;13.80;95.80
32400;DHT22;45045;45.440;9.178;2023-04-15T04:18:18;13.90;96.00
32400;DHT22;45045;45.440;9.178;2023-04-15T04:20:44;13.90;95.90
32400;DHT22;45045;45.440;9.178;2023-04-15T04:23:10;13.90;96.20
32400;DHT22;45045;45.440;9.178;2023-04-15T04:25:35;13.90;96.20
32400;DHT22;45045;45.440;9.178;2023-04-15T04:28:02;13.80;96.20
32400;DHT22;45045;45.440;9.178;2023-04-15T04:30:28;13.80;96.40
32400;DHT22;45045;45.440;9.178;2023-04-15T04:32:53;13.80;96.40
32400;DHT22;45045;45.440;9.178;2023-04-15T04:35:19;13.80;96.60
32400;DHT22;45045;45.440;9.178;2023-04-15T04:37:45;13.80;96.40
32400;DHT22;45045;45.440;9.178;2023-04-15T04:40:10;13.90;95.80
32400;DHT22;45045;45.440;9.178;2023-04-15T04:42:36;13.90;95.90
32400;DHT22;45045;45.440;9.178;2023-04-15T04:45:01;13.90;95.10
32400;DHT22;45045;45.440;9.178;2023-04-15T04:47:27;13.90;95.20
32400;DHT22;45045;45.440;9.178;2023-04-15T04:49:52;13.90;95.50
32400;DHT22;45045;45.440;9.178;2023-04-15T04:52:18;13.90;94.40
32400;DHT22;45045;45.440;9.178;2023-04-15T04:54:43;13.90;94.10
32400;DHT22;45045;45.440;9.178;2023-04-15T04:57:09;13.90;93.50
32400;DHT22;45045;45.440;9.178;2023-04-15T04:59:37;13.90;92.70
32400;DHT22;45045;45.440;9.178;2023-04-15T05:02:03;13.90;92.40
32400;DHT22;45045;45.440;9.178;2023-04-15T05:04:28;13.80;92.00
32400;DHT22;45045;45.440;9.178;2023-04-15T05:06:56;13.90;92.00
32400;DHT22;45045;45.440;9.178;2023-04-15T05:09:22;13.90;91.50
32400;DHT22;45045;45.440;9.178;2023-04-15T05:11:47;13.90;91.10
32400;DHT22;45045;45.440;9.178;2023-04-15T05:14:13;14.00;90.70
32400;DHT22;45045;45.440;9.178;2023-04-15T05:16:38;14.00;90.30
32400;DHT22;45045;45.440;9.178;2023-04-15T05:19:04;14.10;90.20
32400;DHT22;45045;45.440;9.178;2023-04-15T05:21:29;14.20;89.20
32400;DHT22;45045;45.440;9.178;2023-04-15T05:23:56;14.20;87.50
32400;DHT22;45045;45.440;9.178;2023-04-15T05:26:21;14.10;84.60
32400;DHT22;45045;45.440;9.178;2023-04-15T05:28:48;14.10;84.40
32400;DHT22;45045;45.440;9.178;2023-04-15T05:31:14;14.10;84.60
32400;DHT22;45045;45.440;9.178;2023-04-15T05:33:40;14.10;84.80
32400;DHT22;45045;45.440;9.178;2023-04-15T05:36:05;14.10;84.80
32400;DHT22;45045;45.440;9.178;2023-04-15T05:38:31;14.10;84.30
32400;DHT22;45045;45.440;9.178;2023-04-15T05:40:57;14.10;82.40
32400;DHT22;45045;45.440;9.178;2023-04-15T05:43:22;14.00;81.60
32400;DHT22;45045;45.440;9.178;2023-04-15T05:45:48;13.90;81.80
32400;DHT22;45045;45.440;9.178;2023-04-15T05:48:13;14.00;82.00
32400;DHT22;45045;45.440;9.178;2023-04-15T05:50:40;14.00;82.30
32400;DHT22;45045;45.440;9.178;2023-04-15T05:53:05;14.00;83.20
32400;DHT22;45045;45.440;9.178;2023-04-15T05:55:31;14.00;83.60
32400;DHT22;45045;45.440;9.178;2023-04-15T05:57:57;14.10;83.30
32400;DHT22;45045;45.440;9.178;2023-04-15T06:00:22;14.00;83.70
32400;DHT22;45045;45.440;9.178;2023-04-15T06:02:48;14.10;83.60
32400;DHT22;45045;45.440;9.178;2023-04-15T06:05:15;14.00;84.20
32400;DHT22;45045;45.440;9.178;2023-04-15T06:07:40;14.10;83.00
32400;DHT22;45045;45.440;9.178;2023-04-15T06:10:08;14.10;83.10
32400;DHT22;45045;45.440;9.178;2023-04-15T06:12:34;14.20;82.00
32400;DHT22;45045;45.440;9.178;2023-04-15T06:14:59;14.20;81.00
32400;DHT22;45045;45.440;9.178;2023-04-15T06:17:25;14.20;81.20
32400;DHT22;45045;45.440;9.178;2023-04-15T06:19:50;14.20;81.80
32400;DHT22;45045;45.440;9.178;2023-04-15T06:22:20;14.30;82.50
32400;DHT22;45045;45.440;9.178;2023-04-15T06:24:46;14.30;83.10
32400;DHT22;45045;45.440;9.178;2023-04-15T06:27:12;14.30;83.70
32400;DHT22;45045;45.440;9.178;2023-04-15T06:29:37;14.30;85.10
32400;DHT22;45045;45.440;9.178;2023-04-15T06:32:03;14.30;84.80
32400;DHT22;45045;45.440;9.178;2023-04-15T06:34:29;14.60;91.20
32400;DHT22;45045;45.440;9.178;2023-04-15T06:36:54;15.50;93.50
32400;DHT22;45045;45.440;9.178;2023-04-15T06:39:21;16.20;93.00
32400;DHT22;45045;45.440;9.178;2023-04-15T06:41:46;16.60;92.10
32400;DHT22;45045;45.440;9.178;2023-04-15T06:44:12;17.00;91.10
32400;DHT22;45045;45.440;9.178;2023-04-15T06:46:37;17.20;90.40
32400;DHT22;45045;45.440;9.178;2023-04-15T06:49:03;17.30;84.40
32400;DHT22;45045;45.440;9.178;2023-04-15T06:51:29;17.00;84.70
32400;DHT22;45045;45.440;9.178;2023-04-15T06:53:55;17.20;87.80
32400;DHT22;45045;45.440;9.178;2023-04-15T06:56:21;17.40;86.90
32400;DHT22;45045;45.440;9.178;2023-04-15T06:58:47;17.60;86.30
32400;DHT22;45045;45.440;9.178;2023-04-15T07:01:13;16.90;79.10
32400;DHT22;45045;45.440;9.178;2023-04-15T07:03:38;15.90;82.20
32400;DHT22;45045;45.440;9.178;2023-04-15T07:06:04;15.50;84.80
32400;DHT22;45045;45.440;9.178;2023-04-15T07:08:31;15.30;86.30
32400;DHT22;45045;45.440;9.178;2023-04-15T07:10:58;15.30;87.00
32400;DHT22;45045;45.440;9.178;2023-04-15T07:13:24;15.00;88.80
32400;DHT22;45045;45.440;9.178;2023-04-15T07:15:49;14.80;90.30
32400;DHT22;45045;45.440;9.178;2023-04-15T07:18:15;14.80;90.90
32400;DHT22;45045;45.440;9.178;2023-04-15T07:20:40;14.70;91.50
32400;DHT22;45045;45.440;9.178;2023-04-15T07:23:06;14.60;92.40
32400;DHT22;45045;45.440;9.178;2023-04-15T07:25:32;14.60;93.10
32400;DHT22;45045;45.440;9.178;2023-04-15T07:27:58;14.60;93.10
32400;DHT22;45045;45.440;9.178;2023-04-15T07:30:23;14.60;93.60
32400;DHT22;45045;45.440;9.178;2023-04-15T07:32:49;14.70;93.90
32400;DHT22;45045;45.440;9.178;2023-04-15T07:35:14;15.10;93.30
32400;DHT22;45045;45.440;9.178;2023-04-15T07:37:40;15.20;93.20
32400;DHT22;45045;45.440;9.178;2023-04-15T07:40:07;15.40;93.00
32400;DHT22;45045;45.440;9.178;2023-04-15T07:42:33;15.30;93.00
32400;DHT22;45045;45.440;9.178;2023-04-15T07:44:59;15.30;93.10
32400;DHT22;45045;45.440;9.178;2023-04-15T07:47:25;15.10;93.30
32400;DHT22;45045;45.440;9.178;2023-04-15T07:49:51;15.10;94.00
32400;DHT22;45045;45.440;9.178;2023-04-15T07:52:17;15.20;93.70
32400;DHT22;45045;45.440;9.178;2023-04-15T07:54:44;15.40;93.30
32400;DHT22;45045;45.440;9.178;2023-04-15T07:57:09;15.50;93.10
32400;DHT22;45045;45.440;9.178;2023-04-15T07:59:35;15.60;92.90
32400;DHT22;45045;45.440;9.178;2023-04-15T08:02:01;15.70;92.80
32400;DHT22;45045;45.440;9.178;2023-04-15T08:04:26;15.50;92.40
32400;DHT22;45045;45.440;9.178;2023-04-15T08:06:52;15.50;92.80
32400;DHT22;45045;45.440;9.178;2023-04-15T08:09:19;15.40;93.20
32400;DHT22;45045;45.440;9.178;2023-04-15T08:11:45;15.80;92.80
32400;DHT22;45045;45.440;9.178;2023-04-15T08:14:11;15.90;92.70
32400;DHT22;45045;45.440;9.178;2023-04-15T08:16:36;16.30;92.10
32400;DHT22;45045;45.440;9.178;2023-04-15T08:19:02;16.00;91.90
32400;DHT22;45045;45.440;9.178;2023-04-15T08:21:28;16.10;91.80
32400;DHT22;45045;45.440;9.178;2023-04-15T08:23:55;16.20;92.00
32400;DHT22;45045;45.440;9.178;2023-04-15T08:26:21;16.30;91.90
32400;DHT22;45045;45.440;9.178;2023-04-15T08:28:47;16.60;91.60
32400;DHT22;45045;45.440;9.178;2023-04-15T08:31:14;17.00;90.60
32400;DHT22;45045;45.440;9.178;2023-04-15T08:33:39;17.00;89.50
32400;DHT22;45045;45.440;9.178;2023-04-15T08:36:05;16.80;91.10
32400;DHT22;45045;45.440;9.178;2023-04-15T08:38:31;17.20;91.90
32400;DHT22;45045;45.440;9.178;2023-04-15T08:40:58;17.30;90.00
32400;DHT22;45045;45.440;9.178;2023-04-15T08:43:27;17.50;88.70
32400;DHT22;45045;45.440;9.178;2023-04-15T08:45:57;17.00;89.30
32400;DHT22;45045;45.440;9.178;2023-04-15T08:48:29;16.80;90.80
32400;DHT22;45045;45.440;9.178;2023-04-15T08:50:56;17.20;90.70
32400;DHT22;45045;45.440;9.178;2023-04-15T08:53:23;17.50;90.20
32400;DHT22;45045;45.440;9.178;2023-04-15T08:55:50;17.50;89.30
32400;DHT22;45045;45.440;9.178;2023-04-15T08:58:15;17.70;88.10
32400;DHT22;45045;45.440;9.178;2023-04-15T09:00:42;18.00;87.30
32400;DHT22;45045;45.440;9.178;2023-04-15T09:03:07;18.20;91.50
32400;DHT22;45045;45.440;9.178;2023-04-15T09:05:36;18.40;92.30
32400;DHT22;45045;45.440;9.178;2023-04-15T09:08:02;18.60;92.40
32400;DHT22;45045;45.440;9.178;2023-04-15T09:10:28;18.70;92.30
32400;DHT22;45045;45.440;9.178;2023-04-15T09:12:54;18.80;92.00
32400;DHT22;45045;45.440;9.178;2023-04-15T09:15:20;18.90;91.60
32400;DHT22;45045;45.440;9.178;2023-04-15T09:17:46;18.90;91.20
32400;DHT22;45045;45.440;9.178;2023-04-15T09:20:13;19.00;91.10
32400;DHT22;45045;45.440;9.178;2023-04-15T09:22:39;19.00;91.00
32400;DHT22;45045;45.440;9.178;2023-04-15T09:27:37;19.10;90.50
32400;DHT22;45045;45.440;9.178;2023-04-15T09:30:11;19.10;90.30
32400;DHT22;45045;45.440;9.178;2023-04-15T09:32:36;19.20;90.10
32400;DHT22;45045;45.440;9.178;2023-04-15T09:35:14;19.20;89.50
32400;DHT22;45045;45.440;9.178;2023-04-15T09:37:40;19.30;88.90
32400;DHT22;45045;45.440;9.178;2023-04-15T09:40:05;19.40;88.10
32400;DHT22;45045;45.440;9.178;2023-04-15T09:42:31;19.40;88.00
32400;DHT22;45045;45.440;9.178;2023-04-15T09:45:07;19.40;87.50
32400;DHT22;45045;45.440;9.178;2023-04-15T09:47:32;19.50;86.80
32400;DHT22;45045;45.440;9.178;2023-04-15T09:49:58;19.50;85.80
32400;DHT22;45045;45.440;9.178;2023-04-15T09:52:24;19.60;80.70
32400;DHT22;45045;45.440;9.178;2023-04-15T09:54:52;19.80;80.00
32400;DHT22;45045;45.440;9.178;2023-04-15T09:57:17;19.80;80.70
32400;DHT22;45045;45.440;9.178;2023-04-15T09:59:43;19.80;78.50
32400;DHT22;45045;45.440;9.178;2023-04-15T10:02:08;19.90;78.90
32400;DHT22;45045;45.440;9.178;2023-04-15T10:04:37;20.00;78.60
32400;DHT22;45045;45.440;9.178;2023-04-15T10:07:04;20.00;80.50
32400;DHT22;45045;45.440;9.178;2023-04-15T10:09:30;19.90;81.20
32400;DHT22;45045;45.440;9.178;2023-04-15T10:11:57;19.80;82.00
32400;DHT22;45045;45.440;9.178;2023-04-15T10:14:23;19.70;82.30
32400;DHT22;45045;45.440;9.178;2023-04-15T10:16:50;19.70;82.80
32400;DHT22;45045;45.440;9.178;2023-04-15T10:19:17;19.90;82.30
32400;DHT22;45045;45.440;9.178;2023-04-15T10:21:47;20.00;81.40
32400;DHT22;45045;45.440;9.178;2023-04-15T10:24:14;20.10;81.20
32400;DHT22;45045;45.440;9.178;2023-04-15T10:26:40;20.20;81.30
32400;DHT22;45045;45.440;9.178;2023-04-15T10:29:06;20.00;81.30
32400;DHT22;45045;45.440;9.178;2023-04-15T10:31:32;20.20;81.20
32400;DHT22;45045;45.440;9.178;2023-04-15T10:33:58;20.60;73.50
32400;DHT22;45045;45.440;9.178;2023-04-15T10:36:28;20.50;78.70
32400;DHT22;45045;45.440;9.178;2023-04-15T10:38:54;20.60;72.40
32400;DHT22;45045;45.440;9.178;2023-04-15T10:43:46;20.80;74.20
32400;DHT22;45045;45.440;9.178;2023-04-15T10:46:12;20.90;68.80
32400;DHT22;45045;45.440;9.178;2023-04-15T10:48:38;21.10;67.40
32400;DHT22;45045;45.440;9.178;2023-04-15T10:51:03;21.20;67.10
32400;DHT22;45045;45.440;9.178;2023-04-15T10:53:29;21.30;63.00
32400;DHT22;45045;45.440;9.178;2023-04-15T10:55:56;20.80;63.90
32400;DHT22;45045;45.440;9.178;2023-04-15T10:58:24;20.90;67.40
32400;DHT22;45045;45.440;9.178;2023-04-15T11:00:51;21.00;66.20
32400;DHT22;45045;45.440;9.178;2023-04-15T11:03:33;21.20;65.20
32400;DHT22;45045;45.440;9.178;2023-04-15T11:06:00;21.20;61.40
32400;DHT22;45045;45.440;9.178;2023-04-15T11:11:10;21.30;65.10
32400;DHT22;45045;45.440;9.178;2023-04-15T11:13:36;21.60;60.90
32400;DHT22;45045;45.440;9.178;2023-04-15T11:16:11;21.60;64.50
32400;DHT22;45045;45.440;9.178;2023-04-15T11:18:37;21.80;62.20
32400;DHT22;45045;45.440;9.178;2023-04-15T11:21:05;22.00;60.80
32400;DHT22;45045;45.440;9.178;2023-04-15T11:23:39;22.00;60.20
32400;DHT22;45045;45.440;9.178;2023-04-15T11:26:06;22.10;60.20
32400;DHT22;45045;45.440;9.178;2023-04-15T11:28:36;22.00;59.40
32400;DHT22;45045;45.440;9.178;2023-04-15T11:31:06;22.00;59.80
32400;DHT22;45045;45.440;9.178;2023-04-15T11:33:32;21.90;59.00
32400;DHT22;45045;45.440;9.178;2023-04-15T11:35:58;22.00;60.10
32400;DHT22;45045;45.440;9.178;2023-04-15T11:38:24;22.20;59.60
32400;DHT22;45045;45.440;9.178;2023-04-15T11:40:50;22.30;59.20
32400;DHT22;45045;45.440;9.178;2023-04-15T11:43:18;22.20;58.70
32400;DHT22;45045;45.440;9.178;2023-04-15T11:48:13;22.00;57.10
32400;DHT22;45045;45.440;9.178;2023-04-15T11:50:39;21.70;56.80
32400;DHT22;45045;45.440;9.178;2023-04-15T11:53:06;21.80;56.50
32400;DHT22;45045;45.440;9.178;2023-04-15T11:55:44;21.80;56.50
32400;DHT22;45045;45.440;9.178;2023-04-15T12:00:37;22.00;55.20
32400;DHT22;45045;45.440;9.178;2023-04-15T12:03:14;22.00;55.60
32400;DHT22;45045;45.440;9.178;2023-04-15T12:08:25;22.10;64.40
32400;DHT22;45045;45.440;9.178;2023-04-15T12:10:57;22.30;57.20
32400;DHT22;45045;45.440;9.178;2023-04-15T12:13:23;22.40;57.90
32400;DHT22;45045;45.440;9.178;2023-04-15T12:15:48;22.60;55.30
32400;DHT22;45045;45.440;9.178;2023-04-15T12:18:17;22.50;54.10
32400;DHT22;45045;45.440;9.178;2023-04-15T12:20:43;22.60;54.30
32400;DHT22;45045;45.440;9.178;2023-04-15T12:23:09;22.60;54.60
32400;DHT22;45045;45.440;9.178;2023-04-15T12:25:35;22.80;54.80
32400;DHT22;45045;45.440;9.178;2023-04-15T12:28:00;22.60;53.10
32400;DHT22;45045;45.440;9.178;2023-04-15T12:30:26;22.60;61.90
32400;DHT22;45045;45.440;9.178;2023-04-15T12:32:51;22.70;53.70
32400;DHT22;45045;45.440;9.178;2023-04-15T12:35:17;22.70;61.60
32400;DHT22;45045;45.440;9.178;2023-04-15T12:37:45;22.90;55.40
32400;DHT22;45045;45.440;9.178;2023-04-15T12:40:11;22.90;58.40
32400;DHT22;45045;45.440;9.178;2023-04-15T12:42:36;23.10;58.10
32400;DHT22;45045;45.440;9.178;2023-04-15T12:45:02;23.10;63.70
32400;DHT22;45045;45.440;9.178;2023-04-15T12:47:28;23.20;56.50
32400;DHT22;45045;45.440;9.178;2023-04-15T12:49:53;23.10;67.60
32400;DHT22;45045;45.440;9.178;2023-04-15T12:52:19;22.90;72.40
32400;DHT22;45045;45.440;9.178;2023-04-15T12:54:44;22.90;73.60
32400;DHT22;45045;45.440;9.178;2023-04-15T12:57:10;23.10;59.20
32400;DHT22;45045;45.440;9.178;2023-04-15T12:59:35;23.20;56.50
32400;DHT22;45045;45.440;9.178;2023-04-15T13:02:02;23.10;55.70
32400;DHT22;45045;45.440;9.178;2023-04-15T13:04:27;22.90;54.00
32400;DHT22;45045;45.440;9.178;2023-04-15T13:06:54;22.90;54.60
32400;DHT22;45045;45.440;9.178;2023-04-15T13:09:20;23.00;59.70
32400;DHT22;45045;45.440;9.178;2023-04-15T13:11:46;23.00;68.90
32400;DHT22;45045;45.440;9.178;2023-04-15T13:14:11;23.30;60.50
32400;DHT22;45045;45.440;9.178;2023-04-15T13:16:37;23.60;56.80
32400;DHT22;45045;45.440;9.178;2023-04-15T13:19:03;23.50;52.90
32400;DHT22;45045;45.440;9.178;2023-04-15T13:21:28;23.50;52.60
32400;DHT22;45045;45.440;9.178;2023-04-15T13:23:56;23.50;51.50
32400;DHT22;45045;45.440;9.178;2023-04-15T13:26:21;23.50;50.40
32400;DHT22;45045;45.440;9.178;2023-04-15T13:28:47;23.40;56.40
32400;DHT22;45045;45.440;9.178;2023-04-15T13:31:12;23.60;51.90
32400;DHT22;45045;45.440;9.178;2023-04-15T13:33:38;23.70;52.60
32400;DHT22;45045;45.440;9.178;2023-04-15T13:36:04;23.60;50.50
32400;DHT22;45045;45.440;9.178;2023-04-15T13:38:29;23.50;49.80
32400;DHT22;45045;45.440;9.178;2023-04-15T13:40:55;23.30;49.30
32400;DHT22;45045;45.440;9.178;2023-04-15T13:43:20;23.10;48.90
32400;DHT22;45045;45.440;9.178;2023-04-15T13:45:46;23.20;48.40
32400;DHT22;45045;45.440;9.178;2023-04-15T13:48:12;23.30;47.20
32400;DHT22;45045;45.440;9.178;2023-04-15T13:50:38;23.10;47.70
32400;DHT22;45045;45.440;9.178;2023-04-15T13:53:03;23.30;48.70
32400;DHT22;45045;45.440;9.178;2023-04-15T13:55:29;23.50;47.60
32400;DHT22;45045;45.440;9.178;2023-04-15T13:57:55;23.60;47.60
32400;DHT22;45045;45.440;9.178;2023-04-15T14:00:20;23.70;46.70
32400;DHT22;45045;45.440;9.178;2023-04-15T14:02:46;23.80;46.90
32400;DHT22;45045;45.440;9.178;2023-04-15T14:05:12;23.60;46.60
32400;DHT22;45045;45.440;9.178;2023-04-15T14:07:37;23.40;45.80
32400;DHT22;45045;45.440;9.178;2023-04-15T14:10:03;23.20;46.30
32400;DHT22;45045;45.440;9.178;2023-04-15T14:12:29;23.20;47.00
32400;DHT22;45045;45.440;9.178;2023-04-15T14:14:55;23.30;47.60
32400;DHT22;45045;45.440;9.178;2023-04-15T14:17:20;23.30;46.00
32400;DHT22;45045;45.440;9.178;2023-04-15T14:19:46;23.00;45.70
32400;DHT22;45045;45.440;9.178;2023-04-15T14:22:11;22.80;46.00
32400;DHT22;45045;45.440;9.178;2023-04-15T14:24:37;22.70;46.00
32400;DHT22;45045;45.440;9.178;2023-04-15T14:27:02;22.80;46.30
32400;DHT22;45045;45.440;9.178;2023-04-15T14:29:28;22.90;45.70
32400;DHT22;45045;45.440;9.178;2023-04-15T14:31:56;22.80;45.60
32400;DHT22;45045;45.440;9.178;2023-04-15T14:34:23;22.70;45.50
32400;DHT22;45045;45.440;9.178;2023-04-15T14:36:50;22.70;45.80
32400;DHT22;45045;45.440;9.178;2023-04-15T14:39:16;22.50;45.70
32400;DHT22;45045;45.440;9.178;2023-04-15T14:41:42;22.30;45.30
32400;DHT22;45045;45.440;9.178;2023-04-15T14:44:07;22.50;46.50
32400;DHT22;45045;45.440;9.178;2023-04-15T14:46:33;22.80;52.10
32400;DHT22;45045;45.440;9.178;2023-04-15T14:48:59;23.00;58.20
32400;DHT22;45045;45.440;9.178;2023-04-15T14:51:25;23.20;61.20
32400;DHT22;45045;45.440;9.178;2023-04-15T14:53:51;23.20;62.20
32400;DHT22;45045;45.440;9.178;2023-04-15T14:56:16;23.30;63.20
32400;DHT22;45045;45.440;9.178;2023-04-15T14:58:42;23.40;63.40
32400;DHT22;45045;45.440;9.178;2023-04-15T15:01:07;23.40;63.80
32400;DHT22;45045;45.440;9.178;2023-04-15T15:03:33;23.40;63.80
32400;DHT22;45045;45.440;9.178;2023-04-15T15:05:58;23.50;64.10
32400;DHT22;45045;45.440;9.178;2023-04-15T15:08:24;23.40;64.30
32400;DHT22;45045;45.440;9.178;2023-04-15T15:10:49;23.50;63.30
32400;DHT22;45045;45.440;9.178;2023-04-15T15:13:15;23.40;63.60
32400;DHT22;45045;45.440;9.178;2023-04-15T15:15:41;23.40;63.10
32400;DHT22;45045;45.440;9.178;2023-04-15T15:18:06;23.30;63.60
32400;DHT22;45045;45.440;9.178;2023-04-15T15:20:32;23.30;63.50
32400;DHT22;45045;45.440;9.178;2023-04-15T15:22:58;23.30;60.90
32400;DHT22;45045;45.440;9.178;2023-04-15T15:25:24;22.90;47.70
32400;DHT22;45045;45.440;9.178;2023-04-15T15:27:50;22.40;47.60
32400;DHT22;45045;45.440;9.178;2023-04-15T15:30:16;22.10;48.50
32400;DHT22;45045;45.440;9.178;2023-04-15T15:32:42;21.80;48.50
32400;DHT22;45045;45.440;9.178;2023-04-15T15:35:08;21.80;49.20
32400;DHT22;45045;45.440;9.178;2023-04-15T15:37:34;21.80;49.90